Time;durP1;ratioP1;P1;durP2;ratioP2;P2;SDS_P1;SDS_P2;PMS_P1;PMS_P2;Temp;Humidity;BMP_temperature;BMP_pressure;BME280_temperature;BME280_humidity;BME280_pressure;Samples;Min_cycle;Max_cycle;Signal;HPM_P1;HPM_P2
2020/12/19 00:01:05;;;;;;;13.70;5.57;;;7.00;99.90;;;;;;5027464;28;20107;-63
2020/12/19 00:03:31;;;;;;;9.77;4.78;;;7.00;99.90;;;;;;5027998;28;20069;-59
2020/12/19 00:05:57;;;;;;;9.63;4.63;;;7.00;99.90;;;;;;5027377;28;20026;-59
2020/12/19 00:08:23;;;;;;;11.30;4.93;;;7.00;99.90;;;;;;5027743;28;20032;-59
2020/12/19 00:10:48;;;;;;;11.32;5.35;;;7.00;99.90;;;;;;5027962;28;20397;-62
2020/12/19 00:13:14;;;;;;;10.32;4.50;;;7.00;99.90;;;;;;5027746;28;20038;-60
2020/12/19 00:15:39;;;;;;;11.40;5.15;;;7.10;99.90;;;;;;5028260;28;20033;-59
2020/12/19 00:18:05;;;;;;;12.43;5.47;;;7.10;99.90;;;;;;5027168;28;20037;-60
2020/12/19 00:20:30;;;;;;;10.75;5.28;;;7.00;99.90;;;;;;5027903;28;20026;-60
2020/12/19 00:22:56;;;;;;;12.02;4.82;;;7.00;99.90;;;;;;5027202;28;20030;-59
2020/12/19 00:25:21;;;;;;;10.95;4.70;;;7.00;99.90;;;;;;5027613;28;20040;-61
2020/12/19 00:27:47;;;;;;;11.40;5.72;;;7.00;99.90;;;;;;5030276;28;20665;-62
2020/12/19 00:30:12;;;;;;;10.63;4.90;;;7.00;99.90;;;;;;5030718;28;20573;-59
2020/12/19 00:32:39;;;;;;;9.73;4.68;;;7.00;99.90;;;;;;5031489;28;20045;-61
2020/12/19 00:35:05;;;;;;;11.32;5.70;;;6.90;99.90;;;;;;5030835;28;20437;-60
2020/12/19 00:37:31;;;;;;;10.50;5.22;;;6.90;99.90;;;;;;5031236;28;20113;-60
2020/12/19 00:39:56;;;;;;;10.02;4.82;;;6.90;99.90;;;;;;5030597;28;20140;-61
2020/12/19 00:42:22;;;;;;;9.55;4.60;;;7.00;99.90;;;;;;5030907;28;20030;-61
2020/12/19 00:44:47;;;;;;;14.18;7.85;;;7.00;99.90;;;;;;5031060;28;20399;-60
2020/12/19 00:47:13;;;;;;;9.30;4.93;;;7.00;99.90;;;;;;5030761;28;20084;-60
2020/12/19 00:49:38;;;;;;;16.02;4.90;;;7.00;99.90;;;;;;5030878;28;20449;-61
2020/12/19 00:52:04;;;;;;;11.25;5.38;;;6.90;99.90;;;;;;5030387;28;20033;-60
2020/12/19 00:54:30;;;;;;;10.25;5.10;;;6.90;99.90;;;;;;5030983;28;20057;-61
2020/12/19 00:56:55;;;;;;;9.38;4.85;;;6.90;99.90;;;;;;5030854;28;20124;-59
2020/12/19 00:59:21;;;;;;;9.80;4.50;;;6.90;99.90;;;;;;5030162;28;20111;-60
2020/12/19 01:01:46;;;;;;;9.85;4.43;;;6.90;99.90;;;;;;5044358;23;20014;-67
2020/12/19 01:04:12;;;;;;;9.65;4.50;;;6.90;99.90;;;;;;5026491;28;20037;-65
2020/12/19 01:06:38;;;;;;;12.20;4.22;;;6.90;99.90;;;;;;5016816;28;20410;-66
2020/12/19 01:09:05;;;;;;;10.95;4.93;;;6.90;99.90;;;;;;5022474;28;20037;-66
2020/12/19 01:11:31;;;;;;;9.05;4.43;;;6.90;99.90;;;;;;5021543;28;20141;-65
2020/12/19 01:13:58;;;;;;;10.13;4.63;;;7.00;99.90;;;;;;5020072;28;20056;-65
2020/12/19 01:16:28;;;;;;;12.65;5.07;;;6.90;99.90;;;;;;5019151;28;20464;-67
2020/12/19 01:18:56;;;;;;;10.90;4.80;;;7.00;99.90;;;;;;5022272;28;20034;-66
2020/12/19 01:21:25;;;;;;;15.20;5.50;;;7.00;99.90;;;;;;5019636;28;20053;-65
2020/12/19 01:23:51;;;;;;;8.63;4.32;;;7.00;99.90;;;;;;5021679;28;20042;-66
2020/12/19 01:26:18;;;;;;;10.98;4.85;;;6.90;99.90;;;;;;5020507;28;20034;-66
2020/12/19 01:28:43;;;;;;;8.80;4.70;;;6.90;99.90;;;;;;5020784;28;20377;-65
2020/12/19 01:31:14;;;;;;;9.10;4.13;;;6.90;99.90;;;;;;5019836;28;20041;-66
2020/12/19 01:33:40;;;;;;;10.05;4.63;;;6.90;99.90;;;;;;5019971;28;20030;-66
2020/12/19 01:36:20;;;;;;;6.22;3.67;;;6.90;99.90;;;;;;5045511;28;20543;-67
2020/12/19 01:38:46;;;;;;;8.90;4.47;;;6.90;99.90;;;;;;5044055;28;20044;-65
2020/12/19 01:41:13;;;;;;;10.25;4.68;;;6.90;99.90;;;;;;5019543;28;20412;-65
2020/12/19 01:43:58;;;;;;;8.98;3.92;;;6.90;99.90;;;;;;5042966;28;20045;-66
2020/12/19 01:46:52;;;;;;;11.85;5.60;;;6.90;99.90;;;;;;5042321;28;20044;-65
2020/12/19 01:49:18;;;;;;;10.55;4.45;;;6.90;99.90;;;;;;5017355;28;20041;-65
2020/12/19 01:51:47;;;;;;;9.32;4.82;;;6.90;99.90;;;;;;5020555;28;20111;-66
2020/12/19 01:54:13;;;;;;;12.98;4.85;;;6.90;99.90;;;;;;5020513;28;20040;-65
2020/12/19 01:56:39;;;;;;;12.23;4.70;;;6.90;99.90;;;;;;5043647;28;20046;-65
2020/12/19 01:59:04;;;;;;;11.20;4.85;;;6.90;99.90;;;;;;5045084;28;20132;-65
2020/12/19 02:01:30;;;;;;;9.30;4.57;;;6.90;99.90;;;;;;5018578;28;20045;-66
2020/12/19 02:03:56;;;;;;;9.90;5.13;;;6.90;99.90;;;;;;5021597;28;20073;-66
2020/12/19 02:06:24;;;;;;;9.63;4.47;;;6.90;99.90;;;;;;5018882;28;20406;-65
2020/12/19 02:08:52;;;;;;;10.70;4.63;;;6.90;99.90;;;;;;5021190;28;20172;-65
2020/12/19 02:11:19;;;;;;;8.98;4.85;;;6.90;99.90;;;;;;5018913;28;20094;-66
2020/12/19 02:13:45;;;;;;;8.02;4.20;;;6.80;99.90;;;;;;5020624;28;20034;-65
2020/12/19 02:16:16;;;;;;;10.93;5.30;;;6.80;99.90;;;;;;5022223;28;20116;-66
2020/12/19 02:18:42;;;;;;;8.68;4.53;;;6.80;99.90;;;;;;5024780;28;20041;-65
2020/12/19 02:21:08;;;;;;;10.48;4.85;;;6.80;99.90;;;;;;5025705;28;20037;-70
2020/12/19 02:23:33;;;;;;;13.02;5.03;;;6.90;99.90;;;;;;5047380;28;20045;-65
2020/12/19 02:25:59;;;;;;;11.75;6.13;;;6.90;99.90;;;;;;5041732;28;20038;-65
2020/12/19 02:28:24;;;;;;;13.10;5.07;;;6.80;99.90;;;;;;5020866;28;20033;-66
2020/12/19 02:30:50;;;;;;;11.55;5.47;;;6.70;99.90;;;;;;5014815;28;20525;-65
2020/12/19 02:33:15;;;;;;;13.35;5.32;;;6.70;99.90;;;;;;5015438;28;20394;-65
2020/12/19 02:35:41;;;;;;;15.15;6.47;;;6.70;99.90;;;;;;5041601;28;20042;-66
2020/12/19 02:38:06;;;;;;;11.48;5.07;;;6.70;99.90;;;;;;5020459;28;20034;-66
2020/12/19 02:40:32;;;;;;;9.82;4.95;;;6.70;99.90;;;;;;5042539;28;20080;-65
2020/12/19 02:42:57;;;;;;;14.45;6.13;;;6.70;99.90;;;;;;5042691;28;20053;-66
2020/12/19 02:45:23;;;;;;;16.00;5.70;;;6.70;99.90;;;;;;5043697;28;20106;-66
2020/12/19 02:47:48;;;;;;;11.88;5.13;;;6.70;99.90;;;;;;5017726;28;20117;-65
2020/12/19 02:50:14;;;;;;;12.32;6.28;;;6.60;99.90;;;;;;5012729;28;20034;-66
2020/12/19 02:52:39;;;;;;;17.08;5.63;;;6.60;99.90;;;;;;5043793;28;20025;-65
2020/12/19 02:55:05;;;;;;;13.13;6.15;;;6.60;99.90;;;;;;5018914;28;20082;-66
2020/12/19 02:57:30;;;;;;;11.02;5.68;;;6.60;99.90;;;;;;5018782;28;20478;-66
2020/12/19 02:59:56;;;;;;;11.90;5.40;;;6.60;99.90;;;;;;5043458;28;20029;-65
2020/12/19 03:02:21;;;;;;;11.15;5.60;;;6.70;99.90;;;;;;5041332;28;20030;-65
2020/12/19 03:04:47;;;;;;;13.10;5.88;;;6.70;99.90;;;;;;5020898;28;20486;-66
2020/12/19 03:07:12;;;;;;;14.13;5.85;;;6.70;99.90;;;;;;5017436;28;20036;-65
2020/12/19 03:09:38;;;;;;;9.85;5.07;;;6.60;99.90;;;;;;5043122;28;20032;-66
2020/12/19 03:12:04;;;;;;;11.40;5.20;;;6.70;99.90;;;;;;5018439;28;20030;-65
2020/12/19 03:14:30;;;;;;;14.52;5.97;;;6.60;99.90;;;;;;5021046;28;20095;-66
2020/12/19 03:16:55;;;;;;;14.88;6.50;;;6.70;99.90;;;;;;5040992;28;20668;-66
2020/12/19 03:19:21;;;;;;;12.32;5.10;;;6.60;99.90;;;;;;5021625;28;20116;-66
2020/12/19 03:21:46;;;;;;;16.35;7.53;;;6.70;99.90;;;;;;5040438;28;20233;-66
2020/12/19 03:24:12;;;;;;;12.80;5.78;;;6.60;99.90;;;;;;5012782;28;20044;-65
2020/12/19 03:26:37;;;;;;;13.90;5.65;;;6.60;99.90;;;;;;5017685;28;20076;-67
2020/12/19 03:29:03;;;;;;;10.95;5.70;;;6.60;99.90;;;;;;5019708;28;20049;-67
2020/12/19 03:31:28;;;;;;;11.07;5.28;;;6.60;99.90;;;;;;5019243;28;20037;-66
2020/12/19 03:33:54;;;;;;;10.77;4.85;;;6.70;99.90;;;;;;5019191;28;20029;-67
2020/12/19 03:36:20;;;;;;;12.57;5.28;;;6.70;99.90;;;;;;5021692;28;20095;-65
2020/12/19 03:38:46;;;;;;;12.30;6.05;;;6.70;99.90;;;;;;5046084;28;20204;-65
2020/12/19 03:41:11;;;;;;;12.20;5.60;;;6.70;99.90;;;;;;5024050;28;20057;-65
2020/12/19 03:43:37;;;;;;;11.55;5.28;;;6.70;99.90;;;;;;5040355;28;20041;-65
2020/12/19 03:46:03;;;;;;;13.13;5.82;;;6.80;99.90;;;;;;5042846;28;20076;-65
2020/12/19 03:48:28;;;;;;;15.52;5.82;;;6.80;99.90;;;;;;5041989;28;20042;-65
2020/12/19 03:50:54;;;;;;;13.38;5.70;;;6.80;99.90;;;;;;5018068;28;20038;-67
2020/12/19 03:53:20;;;;;;;12.63;5.15;;;6.80;99.90;;;;;;5042784;28;20029;-64
2020/12/19 03:55:45;;;;;;;12.02;4.78;;;6.70;99.90;;;;;;5016591;28;20034;-65
2020/12/19 03:58:11;;;;;;;10.55;5.00;;;6.70;99.90;;;;;;5018832;28;20041;-67
2020/12/19 04:00:37;;;;;;;8.55;4.47;;;6.70;99.90;;;;;;5017417;28;20030;-66
2020/12/19 04:03:02;;;;;;;13.80;5.55;;;6.70;99.90;;;;;;5021667;28;20056;-65
2020/12/19 04:05:28;;;;;;;10.30;5.22;;;6.80;99.90;;;;;;5022029;28;20447;-65
2020/12/19 04:07:54;;;;;;;12.38;5.47;;;6.80;99.90;;;;;;5021416;28;20033;-69
2020/12/19 04:10:19;;;;;;;10.85;5.57;;;6.80;99.90;;;;;;5022096;28;20518;-65
2020/12/19 04:12:45;;;;;;;12.10;5.22;;;6.80;99.90;;;;;;5043855;28;20030;-66
2020/12/19 04:15:11;;;;;;;15.52;5.97;;;6.80;99.90;;;;;;5023900;28;20164;-67
2020/12/19 04:17:37;;;;;;;14.95;6.00;;;6.80;99.90;;;;;;5020816;28;20034;-65
2020/12/19 04:20:06;;;;;;;9.30;4.25;;;6.80;99.90;;;;;;5021218;28;21590;-66
2020/12/19 04:22:32;;;;;;;11.45;4.78;;;6.80;99.90;;;;;;5021232;28;20029;-66
2020/12/19 04:24:58;;;;;;;11.10;5.57;;;6.80;99.90;;;;;;5045715;28;20041;-65
2020/12/19 04:27:23;;;;;;;9.65;4.75;;;6.80;99.90;;;;;;5022302;28;20375;-65
2020/12/19 04:29:49;;;;;;;14.77;5.38;;;6.80;99.90;;;;;;5044678;28;20022;-65
2020/12/19 04:32:15;;;;;;;14.18;5.78;;;6.80;99.90;;;;;;5023194;28;20591;-66
2020/12/19 04:34:40;;;;;;;9.40;4.63;;;6.80;99.90;;;;;;5043792;28;20025;-66
2020/12/19 04:37:06;;;;;;;13.68;5.50;;;6.80;99.90;;;;;;5022661;28;20116;-65
2020/12/19 04:39:32;;;;;;;12.00;4.72;;;6.80;99.90;;;;;;5023552;28;20044;-65
2020/12/19 04:41:57;;;;;;;11.32;4.75;;;6.80;99.90;;;;;;5021140;28;20510;-65
2020/12/19 04:44:23;;;;;;;13.15;5.18;;;6.80;99.90;;;;;;5045468;28;20054;-65
2020/12/19 04:46:49;;;;;;;10.43;5.45;;;6.80;99.90;;;;;;5021075;28;20038;-65
2020/12/19 04:49:15;;;;;;;13.73;4.78;;;6.80;99.90;;;;;;5022139;28;20037;-65
2020/12/19 04:51:41;;;;;;;11.50;4.75;;;6.70;99.90;;;;;;5026537;28;20029;-66
2020/12/19 04:54:07;;;;;;;11.82;5.43;;;6.70;99.90;;;;;;5020181;28;20034;-69
2020/12/19 04:56:32;;;;;;;11.85;5.65;;;6.70;99.90;;;;;;5028077;28;20448;-67
2020/12/19 04:59:00;;;;;;;10.02;5.10;;;6.60;99.90;;;;;;5019611;28;20034;-67
2020/12/19 05:01:26;;;;;;;11.60;5.50;;;6.60;99.90;;;;;;5021845;28;20038;-65
2020/12/19 05:03:53;;;;;;;10.43;5.20;;;6.60;99.90;;;;;;5022731;28;20558;-65
2020/12/19 05:06:21;;;;;;;9.70;5.22;;;6.60;99.90;;;;;;5022005;28;20033;-65
2020/12/19 05:08:47;;;;;;;12.85;5.00;;;6.60;99.90;;;;;;5020693;28;20176;-67
2020/12/19 05:11:13;;;;;;;11.15;5.60;;;6.60;99.90;;;;;;5045675;28;20132;-65
2020/12/19 05:13:40;;;;;;;11.00;5.70;;;6.60;99.90;;;;;;5018809;28;20038;-66
2020/12/19 05:16:07;;;;;;;10.90;5.47;;;6.60;99.90;;;;;;5034609;28;20037;-66
2020/12/19 05:18:34;;;;;;;11.45;4.88;;;6.60;99.90;;;;;;5046187;28;20037;-65
2020/12/19 05:21:01;;;;;;;17.00;4.88;;;6.60;99.90;;;;;;5019484;28;20091;-65
2020/12/19 05:23:27;;;;;;;12.18;4.70;;;6.60;99.90;;;;;;5021341;28;20045;-65
2020/12/19 05:25:55;;;;;;;12.63;5.13;;;6.60;99.90;;;;;;5021213;28;20528;-67
2020/12/19 05:28:21;;;;;;;16.88;6.53;;;6.60;99.90;;;;;;5020508;28;20400;-65
2020/12/19 05:30:46;;;;;;;13.07;5.25;;;6.60;99.90;;;;;;5045132;28;20033;-65
2020/12/19 05:33:14;;;;;;;11.95;5.82;;;6.60;99.90;;;;;;5042684;28;20046;-67
2020/12/19 05:35:40;;;;;;;9.20;5.03;;;6.60;99.90;;;;;;5046084;28;20660;-65
2020/12/19 05:38:05;;;;;;;13.98;5.47;;;6.60;99.90;;;;;;5018918;28;20431;-65
2020/12/19 05:40:33;;;;;;;11.38;5.63;;;6.60;99.90;;;;;;5045315;28;20073;-67
2020/12/19 05:42:59;;;;;;;11.45;4.60;;;6.60;99.90;;;;;;5019659;28;20040;-66
2020/12/19 05:45:27;;;;;;;12.75;5.20;;;6.60;99.90;;;;;;5021007;28;20034;-65
2020/12/19 05:47:52;;;;;;;10.45;5.28;;;6.60;99.90;;;;;;5020671;28;20038;-66
2020/12/19 05:50:23;;;;;;;8.70;4.88;;;6.60;99.90;;;;;;5019474;28;20069;-66
2020/12/19 05:52:48;;;;;;;10.88;4.50;;;6.60;99.90;;;;;;5019667;28;20033;-66
2020/12/19 05:55:16;;;;;;;12.15;5.43;;;6.60;99.90;;;;;;5019370;28;20030;-67
2020/12/19 05:57:42;;;;;;;10.93;5.68;;;6.60;99.90;;;;;;5021470;28;20116;-65
2020/12/19 06:00:14;;;;;;;11.90;4.85;;;6.60;99.90;;;;;;5041936;28;20164;-66
2020/12/19 06:02:40;;;;;;;9.25;5.07;;;6.60;99.90;;;;;;5020120;28;20448;-66
2020/12/19 06:05:13;;;;;;;10.90;5.00;;;6.70;99.90;;;;;;5018698;28;20113;-67
2020/12/19 06:07:44;;;;;;;11.70;6.22;;;6.70;99.90;;;;;;5018213;28;20064;-65
2020/12/19 06:10:13;;;;;;;11.75;5.35;;;6.70;99.90;;;;;;5028557;28;20034;-66
2020/12/19 06:12:57;;;;;;;14.52;5.43;;;6.70;99.90;;;;;;5026727;28;20483;-65
2020/12/19 06:15:28;;;;;;;10.30;4.72;;;6.70;99.90;;;;;;5021385;28;20507;-65
2020/12/19 06:17:59;;;;;;;14.57;6.00;;;6.70;99.90;;;;;;5019334;28;20068;-65
2020/12/19 06:20:28;;;;;;;12.90;6.13;;;6.70;99.90;;;;;;5042051;28;20508;-66
2020/12/19 06:22:54;;;;;;;13.68;6.22;;;6.60;99.90;;;;;;5020812;28;20038;-65
2020/12/19 06:25:43;;;;;;;12.52;6.15;;;6.60;99.90;;;;;;5018962;28;20033;-66
2020/12/19 06:28:10;;;;;;;19.83;6.55;;;6.60;99.90;;;;;;5014928;28;20034;-68
2020/12/19 06:30:36;;;;;;;10.65;5.07;;;6.60;99.90;;;;;;5021446;28;20034;-67
2020/12/19 06:33:11;;;;;;;17.55;5.65;;;6.60;99.90;;;;;;5017102;28;20704;-65
2020/12/19 06:35:37;;;;;;;10.77;5.32;;;6.60;99.90;;;;;;5014761;28;20052;-67
2020/12/19 06:38:03;;;;;;;16.17;6.60;;;6.60;99.90;;;;;;5022059;28;20233;-67
2020/12/19 06:40:38;;;;;;;14.15;6.60;;;6.60;99.90;;;;;;5020762;28;20037;-67
2020/12/19 06:43:14;;;;;;;12.60;5.45;;;6.60;99.90;;;;;;5014213;28;20040;-66
2020/12/19 06:45:40;;;;;;;10.13;5.40;;;6.60;99.90;;;;;;5015671;28;20064;-66
2020/12/19 06:48:41;;;;;;;11.32;5.50;;;6.60;99.90;;;;;;5021193;28;20029;-66
2020/12/19 06:51:07;;;;;;;;;;;6.70;99.90;;;;;;5032291;28;20045;-65
2020/12/19 06:53:33;;;;;;;18.42;6.20;;;6.70;99.90;;;;;;5019383;28;19923;-65
2020/12/19 06:55:59;;;;;;;16.27;5.45;;;6.70;99.90;;;;;;5017517;28;20399;-65
2020/12/19 06:58:35;;;;;;;15.18;5.53;;;6.70;99.90;;;;;;5020441;28;20033;-65
2020/12/19 07:01:21;;;;;;;16.33;5.60;;;6.80;99.90;;;;;;5013456;28;20056;-67
2020/12/19 07:03:46;;;;;;;11.20;5.20;;;6.80;99.90;;;;;;5019687;23;20074;-62
2020/12/19 07:06:14;;;;;;;16.13;5.85;;;6.80;99.90;;;;;;4998519;28;20061;-59
2020/12/19 07:08:40;;;;;;;14.20;5.38;;;6.90;99.90;;;;;;4999273;28;20018;-59
2020/12/19 07:11:11;;;;;;;11.48;5.47;;;7.00;99.90;;;;;;5001413;28;20436;-60
2020/12/19 07:13:53;;;;;;;13.35;5.05;;;7.00;99.90;;;;;;4997868;28;20030;-62
2020/12/19 07:16:44;;;;;;;9.30;5.25;;;7.10;99.90;;;;;;4998085;28;20030;-60
2020/12/19 07:19:25;;;;;;;11.98;5.60;;;7.10;99.90;;;;;;4991719;28;20065;-59
2020/12/19 07:21:52;;;;;;;11.63;5.18;;;7.10;99.90;;;;;;4996893;28;20113;-60
2020/12/19 07:24:18;;;;;;;11.50;5.30;;;7.10;99.90;;;;;;4993847;28;20040;-59
2020/12/19 07:26:44;;;;;;;10.90;5.55;;;7.10;99.90;;;;;;4999769;28;20037;-60
2020/12/19 07:29:18;;;;;;;16.20;5.80;;;7.10;99.90;;;;;;4998743;28;20034;-62
2020/12/19 07:31:49;;;;;;;13.48;5.07;;;7.20;99.90;;;;;;4997791;28;20110;-62
2020/12/19 07:34:15;;;;;;;14.43;6.15;;;7.20;99.90;;;;;;4995282;28;20052;-60
2020/12/19 07:36:43;;;;;;;13.00;5.22;;;7.20;99.90;;;;;;5002331;28;20030;-61
2020/12/19 07:39:10;;;;;;;12.68;5.57;;;7.30;99.90;;;;;;5004279;28;20034;-59
2020/12/19 07:41:36;;;;;;;12.07;5.00;;;7.30;99.90;;;;;;5006520;28;20038;-62
2020/12/19 07:44:09;;;;;;;12.43;5.78;;;7.40;99.90;;;;;;5005151;28;20029;-60
2020/12/19 07:46:35;;;;;;;17.33;5.20;;;7.40;99.90;;;;;;5005528;28;20060;-61
2020/12/19 07:49:01;;;;;;;13.43;5.78;;;7.40;99.90;;;;;;5000267;28;20491;-61
2020/12/19 07:51:26;;;;;;;12.35;5.28;;;7.40;99.90;;;;;;5002524;28;20038;-59
2020/12/19 07:53:52;;;;;;;12.65;5.43;;;7.50;99.90;;;;;;5005384;28;20455;-59
2020/12/19 07:56:19;;;;;;;10.65;5.28;;;7.50;99.90;;;;;;5003964;28;20049;-59
2020/12/19 07:58:46;;;;;;;13.43;5.50;;;7.40;99.90;;;;;;5007396;28;20133;-60
2020/12/19 08:01:12;;;;;;;11.63;5.05;;;7.50;99.90;;;;;;5003134;28;20053;-60
2020/12/19 08:03:37;;;;;;;12.98;5.22;;;7.50;99.90;;;;;;5006183;28;20494;-60
2020/12/19 08:06:03;;;;;;;11.57;5.55;;;7.50;99.90;;;;;;5005632;28;20104;-60
2020/12/19 08:08:28;;;;;;;12.77;5.90;;;7.40;99.90;;;;;;5001493;28;20042;-60
2020/12/19 08:11:03;;;;;;;10.55;4.97;;;7.50;99.90;;;;;;5008283;28;20050;-61
2020/12/19 08:13:29;;;;;;;13.98;4.75;;;7.50;99.90;;;;;;4999332;28;20026;-59
2020/12/19 08:15:56;;;;;;;16.73;5.70;;;7.50;99.90;;;;;;5006105;28;20042;-60
2020/12/19 08:18:22;;;;;;;11.75;4.78;;;7.50;99.90;;;;;;5004841;28;20049;-61
2020/12/19 08:20:49;;;;;;;10.77;5.05;;;7.50;99.90;;;;;;5007034;28;20037;-61
2020/12/19 08:23:14;;;;;;;14.30;5.50;;;7.50;99.90;;;;;;5005659;28;20030;-60
2020/12/19 08:25:40;;;;;;;10.10;4.93;;;7.50;99.90;;;;;;5004521;28;20052;-61
2020/12/19 08:28:06;;;;;;;9.90;4.88;;;7.60;99.90;;;;;;5007398;28;20613;-59
2020/12/19 08:30:32;;;;;;;11.25;5.53;;;7.60;99.90;;;;;;5002870;28;20034;-59
2020/12/19 08:33:08;;;;;;;12.05;5.07;;;7.60;99.90;;;;;;5005734;28;20481;-60
2020/12/19 08:35:39;;;;;;;10.43;4.88;;;7.70;99.90;;;;;;5001025;28;20042;-60
2020/12/19 08:38:23;;;;;;;10.00;4.82;;;7.70;99.90;;;;;;5004105;28;20057;-63
2020/12/19 08:40:50;;;;;;;10.60;5.15;;;7.80;99.90;;;;;;5002462;28;20503;-64
2020/12/19 08:43:17;;;;;;;10.65;5.20;;;7.80;99.90;;;;;;5005503;28;20034;-59
2020/12/19 08:45:42;;;;;;;11.57;5.00;;;7.90;99.90;;;;;;5003739;28;20061;-60
2020/12/19 08:48:17;;;;;;;11.50;4.70;;;7.90;99.90;;;;;;5003615;28;20064;-60
2020/12/19 08:50:43;;;;;;;12.95;5.00;;;8.10;99.90;;;;;;4997626;28;20034;-59
2020/12/19 08:53:10;;;;;;;13.10;5.28;;;8.10;99.90;;;;;;4991274;28;20543;-60
2020/12/19 08:55:37;;;;;;;14.48;5.15;;;8.20;99.90;;;;;;4993750;28;20065;-61
2020/12/19 08:58:04;;;;;;;10.77;4.63;;;8.20;99.90;;;;;;4993577;28;20034;-60
2020/12/19 09:00:35;;;;;;;11.65;4.65;;;8.30;99.90;;;;;;4993747;28;20487;-62
2020/12/19 09:03:07;;;;;;;10.05;4.57;;;8.30;99.90;;;;;;4993857;28;20494;-60
2020/12/19 09:05:37;;;;;;;13.38;5.45;;;8.30;99.90;;;;;;4994654;28;20057;-59
2020/12/19 09:08:03;;;;;;;11.38;4.47;;;8.40;99.90;;;;;;4995638;28;20134;-61
2020/12/19 09:10:31;;;;;;;9.55;4.05;;;8.50;99.90;;;;;;4995802;28;20117;-63
2020/12/19 09:13:20;;;;;;;9.23;4.63;;;8.50;99.90;;;;;;4997494;28;20128;-60
2020/12/19 09:15:47;;;;;;;12.10;5.07;;;8.60;99.90;;;;;;4996828;28;20086;-60
2020/12/19 09:18:16;;;;;;;8.50;4.18;;;8.70;99.90;;;;;;4997409;28;20072;-60
2020/12/19 09:20:43;;;;;;;11.48;4.18;;;8.80;99.90;;;;;;4995066;28;20483;-62
2020/12/19 09:23:09;;;;;;;11.73;4.45;;;8.90;99.90;;;;;;4990944;28;20038;-62
2020/12/19 09:25:34;;;;;;;9.43;4.47;;;8.80;99.90;;;;;;4993476;28;20038;-60
2020/12/19 09:28:00;;;;;;;10.90;4.25;;;8.90;99.90;;;;;;4994326;28;20026;-60
2020/12/19 09:30:25;;;;;;;9.98;4.18;;;8.80;99.90;;;;;;4993014;28;20042;-62
2020/12/19 09:32:51;;;;;;;7.78;4.05;;;8.90;99.90;;;;;;4993266;28;20052;-60
2020/12/19 09:35:16;;;;;;;9.55;4.32;;;8.90;99.90;;;;;;4997526;28;20121;-60
2020/12/19 09:37:42;;;;;;;11.38;3.72;;;8.90;99.90;;;;;;4996341;28;20115;-60
2020/12/19 09:40:07;;;;;;;9.73;4.50;;;8.90;99.90;;;;;;4999450;28;20503;-60
2020/12/19 09:42:33;;;;;;;8.20;4.00;;;8.90;99.90;;;;;;5000841;28;20038;-59
2020/12/19 09:44:59;;;;;;;7.68;4.25;;;9.00;99.90;;;;;;4999207;28;20045;-61
2020/12/19 09:47:24;;;;;;;9.85;4.28;;;9.00;99.90;;;;;;5002519;28;20101;-62
2020/12/19 09:49:50;;;;;;;7.85;4.03;;;9.00;99.90;;;;;;4994834;28;20426;-61
2020/12/19 09:52:15;;;;;;;8.75;4.10;;;9.00;99.90;;;;;;5001768;28;20045;-59
2020/12/19 09:54:41;;;;;;;12.07;5.18;;;9.10;99.90;;;;;;4999754;28;20057;-60
2020/12/19 09:57:06;;;;;;;11.52;3.92;;;9.10;99.90;;;;;;5000291;28;20117;-63
2020/12/19 09:59:32;;;;;;;7.85;3.80;;;9.20;99.90;;;;;;4999331;28;20049;-59
2020/12/19 10:01:57;;;;;;;7.00;3.50;;;9.20;99.90;;;;;;4998578;28;20034;-60
2020/12/19 10:04:23;;;;;;;12.48;4.40;;;9.20;99.90;;;;;;5001658;28;20045;-61
2020/12/19 10:06:51;;;;;;;8.43;4.13;;;9.30;99.90;;;;;;4998325;28;20373;-60
2020/12/19 10:09:17;;;;;;;9.45;3.63;;;9.40;99.90;;;;;;5001866;28;20034;-63
2020/12/19 10:11:43;;;;;;;9.55;3.83;;;9.40;99.90;;;;;;4999350;28;20108;-59
2020/12/19 10:14:09;;;;;;;10.60;4.03;;;9.50;99.90;;;;;;5000211;28;20034;-59
2020/12/19 10:16:35;;;;;;;8.15;3.90;;;9.60;99.90;;;;;;5000023;28;20038;-61
2020/12/19 10:19:00;;;;;;;7.50;3.78;;;9.70;99.90;;;;;;4999033;28;20062;-61
2020/12/19 10:21:26;;;;;;;6.88;3.17;;;9.70;99.90;;;;;;5000929;28;20045;-65
2020/12/19 10:23:51;;;;;;;8.45;3.40;;;9.80;99.90;;;;;;4996717;28;20046;-59
2020/12/19 10:26:17;;;;;;;9.20;3.50;;;9.80;99.90;;;;;;4996552;28;20087;-62
2020/12/19 10:28:43;;;;;;;7.32;3.60;;;9.90;99.90;;;;;;4999312;28;20049;-59
2020/12/19 10:31:08;;;;;;;8.23;3.58;;;9.90;99.90;;;;;;4998827;28;20123;-59
2020/12/19 10:33:34;;;;;;;7.45;3.03;;;9.90;99.90;;;;;;4999424;28;20049;-61
2020/12/19 10:35:59;;;;;;;6.95;3.45;;;10.00;99.90;;;;;;4998903;28;20030;-58
2020/12/19 10:38:25;;;;;;;8.70;3.88;;;10.00;99.90;;;;;;4998176;28;20068;-60
2020/12/19 10:40:50;;;;;;;8.27;3.25;;;10.10;99.90;;;;;;5001420;28;20033;-59
2020/12/19 10:43:16;;;;;;;6.53;3.40;;;10.10;99.90;;;;;;4997916;28;20057;-61
2020/12/19 10:45:41;;;;;;;7.10;3.03;;;10.20;99.90;;;;;;5000749;28;20057;-60
2020/12/19 10:48:07;;;;;;;8.23;3.25;;;10.20;99.90;;;;;;5001097;28;20038;-63
2020/12/19 10:50:32;;;;;;;8.05;2.80;;;10.20;99.90;;;;;;4997300;28;20034;-60
2020/12/19 10:52:58;;;;;;;7.13;3.08;;;10.30;99.90;;;;;;4999853;28;20026;-59
2020/12/19 10:55:23;;;;;;;9.18;3.15;;;10.30;99.90;;;;;;4997984;28;20041;-61
2020/12/19 10:57:49;;;;;;;6.50;3.17;;;10.40;99.90;;;;;;5001390;28;20030;-59
2020/12/19 11:00:14;;;;;;;9.25;3.13;;;10.40;99.90;;;;;;4997444;28;20439;-59
2020/12/19 11:02:40;;;;;;;7.82;2.70;;;10.50;99.90;;;;;;4999951;28;20510;-59
2020/12/19 11:05:06;;;;;;;6.60;3.03;;;10.50;99.90;;;;;;4999375;28;20407;-60
2020/12/19 11:07:31;;;;;;;4.90;2.90;;;10.60;99.90;;;;;;4999168;28;20079;-60
2020/12/19 11:09:57;;;;;;;5.72;2.67;;;10.70;99.90;;;;;;4996848;28;20035;-60
2020/12/19 11:12:22;;;;;;;6.75;2.90;;;10.80;99.90;;;;;;4999324;28;20030;-60
2020/12/19 11:14:48;;;;;;;4.82;3.00;;;10.80;99.90;;;;;;4995961;28;20038;-59
2020/12/19 11:17:13;;;;;;;11.18;3.03;;;10.80;99.90;;;;;;4994190;28;20058;-59
2020/12/19 11:19:39;;;;;;;7.35;2.80;;;10.90;99.90;;;;;;4993596;28;20039;-61
2020/12/19 11:22:05;;;;;;;7.00;2.47;;;10.90;99.90;;;;;;4996939;28;20026;-62
2020/12/19 11:24:30;;;;;;;5.00;2.42;;;11.00;99.90;;;;;;5000462;28;20044;-61
2020/12/19 11:26:56;;;;;;;5.53;2.45;;;11.00;99.90;;;;;;4999628;28;20562;-59
2020/12/19 11:29:21;;;;;;;5.18;2.45;;;11.00;99.90;;;;;;4995450;28;20057;-60
2020/12/19 11:31:48;;;;;;;6.55;2.42;;;11.00;99.90;;;;;;4998800;28;20053;-63
2020/12/19 11:34:14;;;;;;;6.68;2.75;;;11.00;99.90;;;;;;4997021;28;20042;-59
2020/12/19 11:36:40;;;;;;;8.43;2.95;;;11.00;99.90;;;;;;4996465;28;20096;-60
2020/12/19 11:39:11;;;;;;;5.53;2.92;;;11.00;99.90;;;;;;4996240;28;20498;-61
2020/12/19 11:41:38;;;;;;;8.88;2.63;;;10.90;99.90;;;;;;4997421;28;20403;-58
2020/12/19 11:44:04;;;;;;;7.88;2.13;;;10.90;99.90;;;;;;4998199;28;20737;-58
2020/12/19 11:46:30;;;;;;;6.22;2.70;;;10.90;99.90;;;;;;4998256;28;20038;-61
2020/12/19 11:48:55;;;;;;;7.20;2.70;;;11.00;99.90;;;;;;4995641;28;20399;-59
2020/12/19 11:51:31;;;;;;;5.47;2.58;;;11.00;99.90;;;;;;4997334;28;20061;-60
2020/12/19 11:53:58;;;;;;;5.25;2.13;;;11.00;99.90;;;;;;4997871;28;20041;-62
2020/12/19 11:56:24;;;;;;;7.90;2.20;;;11.00;99.90;;;;;;4998368;28;20178;-59
2020/12/19 11:58:50;;;;;;;5.90;2.00;;;11.00;99.90;;;;;;4998382;28;20105;-59
2020/12/19 12:01:15;;;;;;;5.28;1.90;;;11.00;99.90;;;;;;4999502;28;20156;-58
2020/12/19 12:03:41;;;;;;;3.63;1.73;;;11.10;99.90;;;;;;4991117;28;20049;-59
2020/12/19 12:06:07;;;;;;;5.38;1.42;;;11.10;99.90;;;;;;4995837;28;20041;-61
2020/12/19 12:08:32;;;;;;;4.60;1.92;;;11.20;99.90;;;;;;4996481;28;20099;-60
2020/12/19 12:10:58;;;;;;;5.75;2.08;;;11.20;99.90;;;;;;4995627;28;20038;-60
2020/12/19 12:13:24;;;;;;;3.17;1.52;;;11.30;99.90;;;;;;4995624;28;20030;-59
2020/12/19 12:15:49;;;;;;;4.53;1.73;;;11.30;99.90;;;;;;4997706;28;20092;-61
2020/12/19 12:18:15;;;;;;;8.88;1.80;;;11.40;99.90;;;;;;4997493;28;20088;-60
2020/12/19 12:20:40;;;;;;;4.40;1.92;;;11.40;99.90;;;;;;4998805;28;20038;-59
2020/12/19 12:23:06;;;;;;;2.05;1.13;;;11.40;99.90;;;;;;5001256;28;20037;-59
2020/12/19 12:25:32;;;;;;;4.10;1.40;;;11.50;99.90;;;;;;5000650;28;20034;-59
2020/12/19 12:27:58;;;;;;;7.32;1.40;;;11.40;99.90;;;;;;5003850;28;20044;-62
2020/12/19 12:30:23;;;;;;;3.92;1.40;;;11.50;99.90;;;;;;5002124;28;20402;-59
2020/12/19 12:32:49;;;;;;;4.55;1.40;;;11.50;99.90;;;;;;5002383;28;20049;-59
2020/12/19 12:35:14;;;;;;;1.88;1.20;;;11.50;99.90;;;;;;5002207;28;20037;-61
2020/12/19 12:37:40;;;;;;;5.45;1.27;;;11.50;99.90;;;;;;4999645;28;20112;-60
2020/12/19 12:40:06;;;;;;;5.28;1.30;;;11.40;99.90;;;;;;4999439;28;20034;-60
2020/12/19 12:42:31;;;;;;;3.60;1.85;;;11.40;99.90;;;;;;5001645;28;20453;-60
2020/12/19 12:44:57;;;;;;;3.42;1.35;;;11.40;99.90;;;;;;5001679;28;20058;-59
2020/12/19 12:47:22;;;;;;;3.65;1.30;;;11.40;99.90;;;;;;5002575;28;20056;-59